sensor_id;sensor_type;location;lat;lon;timestamp;P1;durP1;ratioP1;P2;durP2;ratioP2
79122;SDS011;68526;44.600;26.032;2023-03-13T00:00:07;32.05;;;22.90;;
79122;SDS011;68526;44.600;26.032;2023-03-13T00:00:24;30.20;;;21.75;;
79122;SDS011;68526;44.600;26.032;2023-03-13T00:00:40;31.63;;;22.73;;
79122;SDS011;68526;44.600;26.032;2023-03-13T00:00:57;30.17;;;22.33;;
79122;SDS011;68526;44.600;26.032;2023-03-13T00:01:14;29.30;;;21.45;;
79122;SDS011;68526;44.600;26.032;2023-03-13T00:01:33;28.85;;;20.98;;
79122;SDS011;68526;44.600;26.032;2023-03-13T00:01:52;29.13;;;21.05;;
79122;SDS011;68526;44.600;26.032;2023-03-13T00:02:08;30.63;;;21.17;;
79122;SDS011;68526;44.600;26.032;2023-03-13T00:02:24;30.08;;;21.23;;
79122;SDS011;68526;44.600;26.032;2023-03-13T00:02:40;29.77;;;21.75;;
79122;SDS011;68526;44.600;26.032;2023-03-13T00:02:59;31.55;;;22.60;;
79122;SDS011;68526;44.600;26.032;2023-03-13T00:03:15;30.83;;;22.02;;
79122;SDS011;68526;44.600;26.032;2023-03-13T00:03:31;29.35;;;21.25;;
79122;SDS011;68526;44.600;26.032;2023-03-13T00:03:47;28.47;;;21.47;;
79122;SDS011;68526;44.600;26.032;2023-03-13T00:04:03;28.67;;;22.02;;
79122;SDS011;68526;44.600;26.032;2023-03-13T00:04:20;30.00;;;22.35;;
79122;SDS011;68526;44.600;26.032;2023-03-13T00:04:36;29.83;;;22.38;;
79122;SDS011;68526;44.600;26.032;2023-03-13T00:04:51;29.65;;;22.48;;
79122;SDS011;68526;44.600;26.032;2023-03-13T00:05:08;29.73;;;23.27;;
79122;SDS011;68526;44.600;26.032;2023-03-13T00:05:24;28.98;;;22.77;;
79122;SDS011;68526;44.600;26.032;2023-03-13T00:05:39;29.73;;;21.92;;
79122;SDS011;68526;44.600;26.032;2023-03-13T00:05:56;31.45;;;22.13;;
79122;SDS011;68526;44.600;26.032;2023-03-13T00:06:13;29.23;;;22.20;;
79122;SDS011;68526;44.600;26.032;2023-03-13T00:06:30;29.17;;;22.38;;
79122;SDS011;68526;44.600;26.032;2023-03-13T00:06:47;31.25;;;21.50;;
79122;SDS011;68526;44.600;26.032;2023-03-13T00:07:03;31.02;;;22.15;;
79122;SDS011;68526;44.600;26.032;2023-03-13T00:07:21;29.63;;;21.73;;
79122;SDS011;68526;44.600;26.032;2023-03-13T00:07:37;28.92;;;20.83;;
79122;SDS011;68526;44.600;26.032;2023-03-13T00:07:53;29.10;;;21.05;;
79122;SDS011;68526;44.600;26.032;2023-03-13T00:08:08;30.23;;;21.58;;
79122;SDS011;68526;44.600;26.032;2023-03-13T00:08:24;30.30;;;21.03;;
79122;SDS011;68526;44.600;26.032;2023-03-13T00:08:43;31.20;;;22.00;;
79122;SDS011;68526;44.600;26.032;2023-03-13T00:09:00;32.10;;;22.48;;
79122;SDS011;68526;44.600;26.032;2023-03-13T00:09:16;31.20;;;21.65;;
79122;SDS011;68526;44.600;26.032;2023-03-13T00:09:32;31.13;;;22.58;;
79122;SDS011;68526;44.600;26.032;2023-03-13T00:09:48;31.30;;;22.85;;
79122;SDS011;68526;44.600;26.032;2023-03-13T00:10:04;31.52;;;22.52;;
79122;SDS011;68526;44.600;26.032;2023-03-13T00:10:22;31.90;;;21.92;;
79122;SDS011;68526;44.600;26.032;2023-03-13T00:10:37;30.25;;;21.33;;
79122;SDS011;68526;44.600;26.032;2023-03-13T00:10:54;30.75;;;21.85;;
79122;SDS011;68526;44.600;26.032;2023-03-13T00:11:11;30.83;;;21.65;;
79122;SDS011;68526;44.600;26.032;2023-03-13T00:11:29;31.17;;;22.08;;
79122;SDS011;68526;44.600;26.032;2023-03-13T00:11:46;30.70;;;22.73;;
79122;SDS011;68526;44.600;26.032;2023-03-13T00:12:02;31.73;;;23.27;;
79122;SDS011;68526;44.600;26.032;2023-03-13T00:12:19;33.60;;;25.23;;
79122;SDS011;68526;44.600;26.032;2023-03-13T00:12:35;33.58;;;24.77;;
79122;SDS011;68526;44.600;26.032;2023-03-13T00:12:50;35.65;;;25.48;;
79122;SDS011;68526;44.600;26.032;2023-03-13T00:13:06;38.78;;;28.25;;
79122;SDS011;68526;44.600;26.032;2023-03-13T00:13:24;41.85;;;31.60;;
79122;SDS011;68526;44.600;26.032;2023-03-13T00:13:40;43.33;;;34.25;;
79122;SDS011;68526;44.600;26.032;2023-03-13T00:13:56;48.03;;;37.90;;
79122;SDS011;68526;44.600;26.032;2023-03-13T00:14:12;59.53;;;46.97;;
79122;SDS011;68526;44.600;26.032;2023-03-13T00:14:29;68.78;;;56.47;;
79122;SDS011;68526;44.600;26.032;2023-03-13T00:14:45;70.50;;;58.85;;
79122;SDS011;68526;44.600;26.032;2023-03-13T00:15:01;74.88;;;62.00;;
79122;SDS011;68526;44.600;26.032;2023-03-13T00:15:17;80.93;;;68.80;;
79122;SDS011;68526;44.600;26.032;2023-03-13T00:15:33;85.18;;;73.10;;
79122;SDS011;68526;44.600;26.032;2023-03-13T00:15:49;84.35;;;70.03;;
79122;SDS011;68526;44.600;26.032;2023-03-13T00:16:06;83.63;;;67.35;;
79122;SDS011;68526;44.600;26.032;2023-03-13T00:16:23;88.57;;;72.38;;
79122;SDS011;68526;44.600;26.032;2023-03-13T00:16:39;89.75;;;74.10;;
79122;SDS011;68526;44.600;26.032;2023-03-13T00:16:57;91.65;;;75.82;;
79122;SDS011;68526;44.600;26.032;2023-03-13T00:17:13;86.80;;;72.25;;
79122;SDS011;68526;44.600;26.032;2023-03-13T00:17:29;82.20;;;68.45;;
79122;SDS011;68526;44.600;26.032;2023-03-13T00:17:47;85.93;;;70.78;;
79122;SDS011;68526;44.600;26.032;2023-03-13T00:18:03;86.27;;;71.87;;
79122;SDS011;68526;44.600;26.032;2023-03-13T00:18:19;84.53;;;68.50;;
79122;SDS011;68526;44.600;26.032;2023-03-13T00:18:35;80.93;;;65.40;;
79122;SDS011;68526;44.600;26.032;2023-03-13T00:18:51;78.30;;;63.83;;
79122;SDS011;68526;44.600;26.032;2023-03-13T00:19:09;77.95;;;62.97;;
79122;SDS011;68526;44.600;26.032;2023-03-13T00:19:25;78.07;;;62.80;;
79122;SDS011;68526;44.600;26.032;2023-03-13T00:19:41;79.80;;;62.72;;
79122;SDS011;68526;44.600;26.032;2023-03-13T00:19:57;81.78;;;62.55;;
79122;SDS011;68526;44.600;26.032;2023-03-13T00:20:13;78.37;;;61.70;;
79122;SDS011;68526;44.600;26.032;2023-03-13T00:20:31;75.45;;;58.63;;
79122;SDS011;68526;44.600;26.032;2023-03-13T00:20:48;74.90;;;58.50;;
79122;SDS011;68526;44.600;26.032;2023-03-13T00:21:05;71.57;;;55.20;;
79122;SDS011;68526;44.600;26.032;2023-03-13T00:21:23;67.60;;;51.10;;
79122;SDS011;68526;44.600;26.032;2023-03-13T00:21:40;64.05;;;48.00;;
79122;SDS011;68526;44.600;26.032;2023-03-13T00:21:56;59.87;;;44.97;;
79122;SDS011;68526;44.600;26.032;2023-03-13T00:22:13;57.75;;;42.80;;
79122;SDS011;68526;44.600;26.032;2023-03-13T00:22:29;56.83;;;41.33;;
79122;SDS011;68526;44.600;26.032;2023-03-13T00:22:51;52.03;;;41.30;;
79122;SDS011;68526;44.600;26.032;2023-03-13T00:23:07;49.60;;;39.05;;
79122;SDS011;68526;44.600;26.032;2023-03-13T00:23:23;48.33;;;36.83;;
79122;SDS011;68526;44.600;26.032;2023-03-13T00:23:39;48.77;;;35.60;;
79122;SDS011;68526;44.600;26.032;2023-03-13T00:23:56;46.97;;;33.67;;
79122;SDS011;68526;44.600;26.032;2023-03-13T00:24:13;43.72;;;32.65;;
79122;SDS011;68526;44.600;26.032;2023-03-13T00:24:29;41.47;;;31.23;;
79122;SDS011;68526;44.600;26.032;2023-03-13T00:24:45;41.33;;;30.30;;
79122;SDS011;68526;44.600;26.032;2023-03-13T00:25:01;41.42;;;31.17;;
79122;SDS011;68526;44.600;26.032;2023-03-13T00:25:17;41.72;;;31.90;;
79122;SDS011;68526;44.600;26.032;2023-03-13T00:25:32;42.97;;;32.97;;
79122;SDS011;68526;44.600;26.032;2023-03-13T00:25:54;45.25;;;35.13;;
79122;SDS011;68526;44.600;26.032;2023-03-13T00:26:12;43.25;;;33.75;;
79122;SDS011;68526;44.600;26.032;2023-03-13T00:26:29;39.25;;;31.33;;
79122;SDS011;68526;44.600;26.032;2023-03-13T00:26:45;41.13;;;30.45;;
79122;SDS011;68526;44.600;26.032;2023-03-13T00:27:01;44.03;;;31.95;;
79122;SDS011;68526;44.600;26.032;2023-03-13T00:27:19;46.42;;;34.25;;
79122;SDS011;68526;44.600;26.032;2023-03-13T00:27:35;45.55;;;32.97;;
79122;SDS011;68526;44.600;26.032;2023-03-13T00:27:50;41.97;;;31.07;;
79122;SDS011;68526;44.600;26.032;2023-03-13T00:28:06;43.33;;;31.38;;
79122;SDS011;68526;44.600;26.032;2023-03-13T00:28:22;44.40;;;31.27;;
79122;SDS011;68526;44.600;26.032;2023-03-13T00:28:38;39.87;;;29.77;;
79122;SDS011;68526;44.600;26.032;2023-03-13T00:28:56;38.22;;;29.33;;
79122;SDS011;68526;44.600;26.032;2023-03-13T00:29:12;40.47;;;29.02;;
79122;SDS011;68526;44.600;26.032;2023-03-13T00:29:28;40.38;;;29.15;;
79122;SDS011;68526;44.600;26.032;2023-03-13T00:29:43;38.78;;;29.00;;
79122;SDS011;68526;44.600;26.032;2023-03-13T00:29:59;39.23;;;29.17;;
79122;SDS011;68526;44.600;26.032;2023-03-13T00:30:16;38.78;;;29.20;;
79122;SDS011;68526;44.600;26.032;2023-03-13T00:30:32;38.47;;;29.52;;
79122;SDS011;68526;44.600;26.032;2023-03-13T00:30:48;37.92;;;28.77;;
79122;SDS011;68526;44.600;26.032;2023-03-13T00:31:04;36.40;;;27.43;;
79122;SDS011;68526;44.600;26.032;2023-03-13T00:31:22;40.63;;;28.27;;
79122;SDS011;68526;44.600;26.032;2023-03-13T00:31:40;39.92;;;27.00;;
79122;SDS011;68526;44.600;26.032;2023-03-13T00:31:57;36.27;;;26.47;;
79122;SDS011;68526;44.600;26.032;2023-03-13T00:32:13;38.47;;;27.45;;
79122;SDS011;68526;44.600;26.032;2023-03-13T00:32:29;38.53;;;26.77;;
79122;SDS011;68526;44.600;26.032;2023-03-13T00:32:45;38.72;;;27.40;;
79122;SDS011;68526;44.600;26.032;2023-03-13T00:33:02;39.08;;;27.05;;
79122;SDS011;68526;44.600;26.032;2023-03-13T00:33:18;37.33;;;26.45;;
79122;SDS011;68526;44.600;26.032;2023-03-13T00:33:34;36.03;;;26.67;;
79122;SDS011;68526;44.600;26.032;2023-03-13T00:33:52;36.05;;;27.23;;
79122;SDS011;68526;44.600;26.032;2023-03-13T00:34:11;35.67;;;25.92;;
79122;SDS011;68526;44.600;26.032;2023-03-13T00:34:27;36.63;;;25.30;;
79122;SDS011;68526;44.600;26.032;2023-03-13T00:34:44;37.28;;;25.00;;
79122;SDS011;68526;44.600;26.032;2023-03-13T00:34:59;37.05;;;25.80;;
79122;SDS011;68526;44.600;26.032;2023-03-13T00:35:15;37.10;;;25.13;;
79122;SDS011;68526;44.600;26.032;2023-03-13T00:35:31;36.22;;;24.55;;
79122;SDS011;68526;44.600;26.032;2023-03-13T00:35:47;36.10;;;25.45;;
79122;SDS011;68526;44.600;26.032;2023-03-13T00:36:03;36.73;;;25.47;;
79122;SDS011;68526;44.600;26.032;2023-03-13T00:36:22;38.03;;;25.25;;
79122;SDS011;68526;44.600;26.032;2023-03-13T00:36:41;34.75;;;24.25;;
79122;SDS011;68526;44.600;26.032;2023-03-13T00:36:56;32.78;;;23.90;;
79122;SDS011;68526;44.600;26.032;2023-03-13T00:37:12;32.70;;;24.35;;
79122;SDS011;68526;44.600;26.032;2023-03-13T00:37:30;35.13;;;25.30;;
79122;SDS011;68526;44.600;26.032;2023-03-13T00:37:46;34.35;;;25.08;;
79122;SDS011;68526;44.600;26.032;2023-03-13T00:38:03;31.48;;;24.08;;
79122;SDS011;68526;44.600;26.032;2023-03-13T00:38:18;30.73;;;23.70;;
79122;SDS011;68526;44.600;26.032;2023-03-13T00:38:34;33.30;;;24.33;;
79122;SDS011;68526;44.600;26.032;2023-03-13T00:38:51;34.45;;;24.33;;
79122;SDS011;68526;44.600;26.032;2023-03-13T00:39:08;34.88;;;24.17;;
79122;SDS011;68526;44.600;26.032;2023-03-13T00:39:25;33.47;;;22.45;;
79122;SDS011;68526;44.600;26.032;2023-03-13T00:39:41;34.20;;;23.05;;
79122;SDS011;68526;44.600;26.032;2023-03-13T00:39:56;33.92;;;24.17;;
79122;SDS011;68526;44.600;26.032;2023-03-13T00:40:12;34.10;;;24.27;;
79122;SDS011;68526;44.600;26.032;2023-03-13T00:40:28;34.67;;;24.25;;
79122;SDS011;68526;44.600;26.032;2023-03-13T00:40:44;34.55;;;24.42;;
79122;SDS011;68526;44.600;26.032;2023-03-13T00:41:01;33.38;;;23.63;;
79122;SDS011;68526;44.600;26.032;2023-03-13T00:41:19;32.78;;;22.90;;
79122;SDS011;68526;44.600;26.032;2023-03-13T00:41:36;33.63;;;23.20;;
79122;SDS011;68526;44.600;26.032;2023-03-13T00:41:52;33.38;;;23.10;;
79122;SDS011;68526;44.600;26.032;2023-03-13T00:42:08;32.80;;;22.97;;
79122;SDS011;68526;44.600;26.032;2023-03-13T00:42:24;34.40;;;23.13;;
79122;SDS011;68526;44.600;26.032;2023-03-13T00:42:40;35.50;;;23.45;;
79122;SDS011;68526;44.600;26.032;2023-03-13T00:42:56;32.85;;;22.90;;
79122;SDS011;68526;44.600;26.032;2023-03-13T00:43:12;31.98;;;22.17;;
79122;SDS011;68526;44.600;26.032;2023-03-13T00:43:28;32.88;;;22.45;;
79122;SDS011;68526;44.600;26.032;2023-03-13T00:43:44;33.05;;;23.13;;
79122;SDS011;68526;44.600;26.032;2023-03-13T00:44:01;31.98;;;23.15;;
79122;SDS011;68526;44.600;26.032;2023-03-13T00:44:17;32.33;;;22.90;;
79122;SDS011;68526;44.600;26.032;2023-03-13T00:44:34;32.90;;;23.73;;
79122;SDS011;68526;44.600;26.032;2023-03-13T00:44:49;32.72;;;23.98;;
79122;SDS011;68526;44.600;26.032;2023-03-13T00:45:05;32.55;;;23.13;;
79122;SDS011;68526;44.600;26.032;2023-03-13T00:45:22;30.23;;;22.08;;
79122;SDS011;68526;44.600;26.032;2023-03-13T00:45:37;28.83;;;21.63;;
79122;SDS011;68526;44.600;26.032;2023-03-13T00:45:53;32.73;;;23.47;;
79122;SDS011;68526;44.600;26.032;2023-03-13T00:46:09;33.35;;;23.73;;
79122;SDS011;68526;44.600;26.032;2023-03-13T00:46:28;34.70;;;24.20;;
79122;SDS011;68526;44.600;26.032;2023-03-13T00:46:44;33.63;;;24.00;;
79122;SDS011;68526;44.600;26.032;2023-03-13T00:47:02;31.75;;;22.80;;
79122;SDS011;68526;44.600;26.032;2023-03-13T00:47:19;31.25;;;22.55;;
79122;SDS011;68526;44.600;26.032;2023-03-13T00:47:35;30.80;;;23.03;;
79122;SDS011;68526;44.600;26.032;2023-03-13T00:47:52;31.45;;;23.52;;
79122;SDS011;68526;44.600;26.032;2023-03-13T00:48:07;34.40;;;23.48;;
79122;SDS011;68526;44.600;26.032;2023-03-13T00:48:23;34.80;;;23.40;;
79122;SDS011;68526;44.600;26.032;2023-03-13T00:48:39;32.00;;;23.13;;
79122;SDS011;68526;44.600;26.032;2023-03-13T00:48:55;32.10;;;22.50;;
79122;SDS011;68526;44.600;26.032;2023-03-13T00:49:12;32.78;;;22.15;;
79122;SDS011;68526;44.600;26.032;2023-03-13T00:49:27;31.73;;;22.45;;
79122;SDS011;68526;44.600;26.032;2023-03-13T00:49:44;32.05;;;22.35;;
79122;SDS011;68526;44.600;26.032;2023-03-13T00:50:00;33.17;;;22.77;;
79122;SDS011;68526;44.600;26.032;2023-03-13T00:50:16;35.13;;;23.60;;
79122;SDS011;68526;44.600;26.032;2023-03-13T00:50:32;34.13;;;23.17;;
79122;SDS011;68526;44.600;26.032;2023-03-13T00:50:48;31.95;;;23.05;;
79122;SDS011;68526;44.600;26.032;2023-03-13T00:51:05;32.50;;;23.27;;
79122;SDS011;68526;44.600;26.032;2023-03-13T00:51:22;32.97;;;23.60;;
79122;SDS011;68526;44.600;26.032;2023-03-13T00:51:40;33.13;;;22.90;;
79122;SDS011;68526;44.600;26.032;2023-03-13T00:51:56;31.25;;;22.55;;
79122;SDS011;68526;44.600;26.032;2023-03-13T00:52:13;31.73;;;22.98;;
79122;SDS011;68526;44.600;26.032;2023-03-13T00:52:29;32.40;;;22.92;;
79122;SDS011;68526;44.600;26.032;2023-03-13T00:52:45;32.00;;;23.47;;
79122;SDS011;68526;44.600;26.032;2023-03-13T00:53:00;33.38;;;23.67;;
79122;SDS011;68526;44.600;26.032;2023-03-13T00:53:16;33.00;;;23.30;;
79122;SDS011;68526;44.600;26.032;2023-03-13T00:53:32;31.25;;;22.67;;
79122;SDS011;68526;44.600;26.032;2023-03-13T00:53:48;32.33;;;22.60;;
79122;SDS011;68526;44.600;26.032;2023-03-13T00:54:05;33.60;;;23.00;;
79122;SDS011;68526;44.600;26.032;2023-03-13T00:54:21;33.05;;;23.40;;
79122;SDS011;68526;44.600;26.032;2023-03-13T00:54:37;31.95;;;22.23;;
79122;SDS011;68526;44.600;26.032;2023-03-13T00:54:53;30.95;;;22.33;;
79122;SDS011;68526;44.600;26.032;2023-03-13T00:55:09;32.42;;;23.15;;
79122;SDS011;68526;44.600;26.032;2023-03-13T00:55:26;31.67;;;23.55;;
79122;SDS011;68526;44.600;26.032;2023-03-13T00:55:50;31.30;;;23.83;;
79122;SDS011;68526;44.600;26.032;2023-03-13T00:56:07;32.30;;;22.98;;
79122;SDS011;68526;44.600;26.032;2023-03-13T00:56:28;33.90;;;22.77;;
79122;SDS011;68526;44.600;26.032;2023-03-13T00:56:45;34.90;;;23.95;;
79122;SDS011;68526;44.600;26.032;2023-03-13T00:57:01;33.58;;;23.77;;
79122;SDS011;68526;44.600;26.032;2023-03-13T00:57:16;33.03;;;22.97;;
79122;SDS011;68526;44.600;26.032;2023-03-13T00:57:32;31.98;;;22.58;;
79122;SDS011;68526;44.600;26.032;2023-03-13T00:57:51;32.92;;;22.80;;
79122;SDS011;68526;44.600;26.032;2023-03-13T00:58:07;33.43;;;22.87;;
79122;SDS011;68526;44.600;26.032;2023-03-13T00:58:23;33.28;;;22.90;;
79122;SDS011;68526;44.600;26.032;2023-03-13T00:58:41;31.70;;;22.90;;
79122;SDS011;68526;44.600;26.032;2023-03-13T00:58:58;33.72;;;23.70;;
79122;SDS011;68526;44.600;26.032;2023-03-13T00:59:14;33.05;;;23.45;;
79122;SDS011;68526;44.600;26.032;2023-03-13T00:59:30;30.83;;;22.27;;
79122;SDS011;68526;44.600;26.032;2023-03-13T00:59:46;31.67;;;23.23;;
79122;SDS011;68526;44.600;26.032;2023-03-13T01:00:03;31.80;;;22.67;;
79122;SDS011;68526;44.600;26.032;2023-03-13T01:00:20;30.90;;;21.95;;
79122;SDS011;68526;44.600;26.032;2023-03-13T01:00:36;31.52;;;22.23;;
79122;SDS011;68526;44.600;26.032;2023-03-13T01:00:52;32.10;;;22.95;;
79122;SDS011;68526;44.600;26.032;2023-03-13T01:01:10;31.35;;;23.15;;
79122;SDS011;68526;44.600;26.032;2023-03-13T01:01:29;29.15;;;21.60;;
79122;SDS011;68526;44.600;26.032;2023-03-13T01:01:46;30.63;;;21.33;;
79122;SDS011;68526;44.600;26.032;2023-03-13T01:02:04;31.38;;;22.23;;
79122;SDS011;68526;44.600;26.032;2023-03-13T01:02:20;31.10;;;21.67;;
79122;SDS011;68526;44.600;26.032;2023-03-13T01:02:39;30.33;;;21.65;;
79122;SDS011;68526;44.600;26.032;2023-03-13T01:02:56;29.73;;;21.70;;
79122;SDS011;68526;44.600;26.032;2023-03-13T01:03:12;31.30;;;21.70;;
79122;SDS011;68526;44.600;26.032;2023-03-13T01:03:29;32.53;;;22.67;;
79122;SDS011;68526;44.600;26.032;2023-03-13T01:03:46;33.78;;;23.05;;
79122;SDS011;68526;44.600;26.032;2023-03-13T01:04:04;33.40;;;22.95;;
79122;SDS011;68526;44.600;26.032;2023-03-13T01:04:23;31.92;;;22.48;;
79122;SDS011;68526;44.600;26.032;2023-03-13T01:04:39;30.80;;;22.40;;
79122;SDS011;68526;44.600;26.032;2023-03-13T01:04:55;31.70;;;22.63;;
79122;SDS011;68526;44.600;26.032;2023-03-13T01:05:10;31.88;;;21.92;;
79122;SDS011;68526;44.600;26.032;2023-03-13T01:05:27;32.08;;;21.60;;
79122;SDS011;68526;44.600;26.032;2023-03-13T01:05:43;32.25;;;22.35;;
79122;SDS011;68526;44.600;26.032;2023-03-13T01:06:01;28.85;;;21.30;;
79122;SDS011;68526;44.600;26.032;2023-03-13T01:06:19;29.10;;;20.60;;
79122;SDS011;68526;44.600;26.032;2023-03-13T01:06:37;29.63;;;20.90;;
79122;SDS011;68526;44.600;26.032;2023-03-13T01:06:54;30.80;;;21.70;;
79122;SDS011;68526;44.600;26.032;2023-03-13T01:07:10;29.70;;;21.10;;
79122;SDS011;68526;44.600;26.032;2023-03-13T01:07:28;28.67;;;20.77;;
79122;SDS011;68526;44.600;26.032;2023-03-13T01:07:43;28.83;;;20.33;;
79122;SDS011;68526;44.600;26.032;2023-03-13T01:07:59;30.58;;;21.40;;
79122;SDS011;68526;44.600;26.032;2023-03-13T01:08:15;31.48;;;22.17;;
79122;SDS011;68526;44.600;26.032;2023-03-13T01:08:31;29.80;;;21.00;;
79122;SDS011;68526;44.600;26.032;2023-03-13T01:08:47;29.48;;;20.67;;
79122;SDS011;68526;44.600;26.032;2023-03-13T01:09:05;30.92;;;22.00;;
79122;SDS011;68526;44.600;26.032;2023-03-13T01:09:21;30.08;;;21.15;;
79122;SDS011;68526;44.600;26.032;2023-03-13T01:09:37;29.07;;;20.50;;
79122;SDS011;68526;44.600;26.032;2023-03-13T01:09:53;29.60;;;21.10;;
79122;SDS011;68526;44.600;26.032;2023-03-13T01:10:09;30.07;;;21.00;;
79122;SDS011;68526;44.600;26.032;2023-03-13T01:10:26;29.50;;;20.33;;
79122;SDS011;68526;44.600;26.032;2023-03-13T01:10:42;30.48;;;20.35;;
79122;SDS011;68526;44.600;26.032;2023-03-13T01:10:58;29.40;;;20.35;;
79122;SDS011;68526;44.600;26.032;2023-03-13T01:11:15;28.85;;;20.50;;
79122;SDS011;68526;44.600;26.032;2023-03-13T01:11:33;28.30;;;20.67;;
79122;SDS011;68526;44.600;26.032;2023-03-13T01:11:51;29.02;;;21.25;;
79122;SDS011;68526;44.600;26.032;2023-03-13T01:12:07;29.40;;;20.67;;
79122;SDS011;68526;44.600;26.032;2023-03-13T01:12:23;28.23;;;20.60;;
79122;SDS011;68526;44.600;26.032;2023-03-13T01:12:39;28.90;;;21.45;;
79122;SDS011;68526;44.600;26.032;2023-03-13T01:12:56;29.15;;;21.25;;
79122;SDS011;68526;44.600;26.032;2023-03-13T01:13:12;27.83;;;20.25;;
79122;SDS011;68526;44.600;26.032;2023-03-13T01:13:28;30.02;;;20.55;;
79122;SDS011;68526;44.600;26.032;2023-03-13T01:13:47;31.45;;;21.38;;
79122;SDS011;68526;44.600;26.032;2023-03-13T01:14:04;28.10;;;20.73;;
79122;SDS011;68526;44.600;26.032;2023-03-13T01:14:22;28.35;;;20.48;;
79122;SDS011;68526;44.600;26.032;2023-03-13T01:14:38;29.20;;;21.33;;
79122;SDS011;68526;44.600;26.032;2023-03-13T01:14:54;29.23;;;21.02;;
79122;SDS011;68526;44.600;26.032;2023-03-13T01:15:10;29.17;;;20.67;;
79122;SDS011;68526;44.600;26.032;2023-03-13T01:15:27;30.67;;;21.63;;
79122;SDS011;68526;44.600;26.032;2023-03-13T01:15:43;30.35;;;21.67;;
79122;SDS011;68526;44.600;26.032;2023-03-13T01:16:00;30.27;;;21.73;;
79122;SDS011;68526;44.600;26.032;2023-03-13T01:16:18;29.25;;;20.98;;
79122;SDS011;68526;44.600;26.032;2023-03-13T01:16:35;28.30;;;20.30;;
79122;SDS011;68526;44.600;26.032;2023-03-13T01:16:53;27.80;;;20.38;;
79122;SDS011;68526;44.600;26.032;2023-03-13T01:17:10;28.85;;;21.30;;
79122;SDS011;68526;44.600;26.032;2023-03-13T01:17:26;30.15;;;22.40;;
79122;SDS011;68526;44.600;26.032;2023-03-13T01:17:42;28.58;;;21.88;;
79122;SDS011;68526;44.600;26.032;2023-03-13T01:17:58;27.45;;;21.25;;
79122;SDS011;68526;44.600;26.032;2023-03-13T01:18:14;27.42;;;21.00;;
79122;SDS011;68526;44.600;26.032;2023-03-13T01:18:31;27.98;;;21.52;;
79122;SDS011;68526;44.600;26.032;2023-03-13T01:18:48;28.70;;;21.20;;
79122;SDS011;68526;44.600;26.032;2023-03-13T01:19:06;29.70;;;21.00;;
79122;SDS011;68526;44.600;26.032;2023-03-13T01:19:23;28.98;;;21.45;;
79122;SDS011;68526;44.600;26.032;2023-03-13T01:19:40;27.95;;;21.17;;
79122;SDS011;68526;44.600;26.032;2023-03-13T01:19:56;28.95;;;21.02;;
79122;SDS011;68526;44.600;26.032;2023-03-13T01:20:12;28.75;;;20.75;;
79122;SDS011;68526;44.600;26.032;2023-03-13T01:20:28;30.15;;;21.50;;
79122;SDS011;68526;44.600;26.032;2023-03-13T01:20:44;28.88;;;20.90;;
79122;SDS011;68526;44.600;26.032;2023-03-13T01:21:00;28.30;;;21.08;;
79122;SDS011;68526;44.600;26.032;2023-03-13T01:21:17;30.80;;;21.65;;
79122;SDS011;68526;44.600;26.032;2023-03-13T01:21:34;31.67;;;21.52;;
79122;SDS011;68526;44.600;26.032;2023-03-13T01:21:49;29.73;;;21.77;;
79122;SDS011;68526;44.600;26.032;2023-03-13T01:22:05;29.58;;;21.73;;
79122;SDS011;68526;44.600;26.032;2023-03-13T01:22:25;29.65;;;21.38;;
79122;SDS011;68526;44.600;26.032;2023-03-13T01:22:41;29.83;;;21.13;;
79122;SDS011;68526;44.600;26.032;2023-03-13T01:22:57;29.80;;;20.73;;
79122;SDS011;68526;44.600;26.032;2023-03-13T01:23:13;30.05;;;20.58;;
79122;SDS011;68526;44.600;26.032;2023-03-13T01:23:29;31.02;;;21.02;;
79122;SDS011;68526;44.600;26.032;2023-03-13T01:23:45;31.27;;;21.57;;
79122;SDS011;68526;44.600;26.032;2023-03-13T01:24:03;31.38;;;22.10;;
79122;SDS011;68526;44.600;26.032;2023-03-13T01:24:19;32.42;;;22.45;;
79122;SDS011;68526;44.600;26.032;2023-03-13T01:24:35;31.45;;;21.92;;
79122;SDS011;68526;44.600;26.032;2023-03-13T01:24:50;30.67;;;21.75;;
79122;SDS011;68526;44.600;26.032;2023-03-13T01:25:08;31.23;;;21.60;;
79122;SDS011;68526;44.600;26.032;2023-03-13T01:25:24;30.25;;;21.08;;
79122;SDS011;68526;44.600;26.032;2023-03-13T01:25:41;30.30;;;21.23;;
79122;SDS011;68526;44.600;26.032;2023-03-13T01:25:56;32.00;;;22.15;;
79122;SDS011;68526;44.600;26.032;2023-03-13T01:26:12;30.77;;;22.20;;
79122;SDS011;68526;44.600;26.032;2023-03-13T01:26:28;29.58;;;21.63;;
79122;SDS011;68526;44.600;26.032;2023-03-13T01:26:44;30.45;;;21.30;;
79122;SDS011;68526;44.600;26.032;2023-03-13T01:27:01;29.85;;;21.70;;
79122;SDS011;68526;44.600;26.032;2023-03-13T01:27:17;30.35;;;21.23;;
79122;SDS011;68526;44.600;26.032;2023-03-13T01:27:33;30.10;;;20.90;;
79122;SDS011;68526;44.600;26.032;2023-03-13T01:27:49;28.88;;;21.58;;
79122;SDS011;68526;44.600;26.032;2023-03-13T01:28:04;31.08;;;21.40;;
79122;SDS011;68526;44.600;26.032;2023-03-13T01:28:22;30.80;;;21.35;;
79122;SDS011;68526;44.600;26.032;2023-03-13T01:28:38;29.13;;;21.73;;
79122;SDS011;68526;44.600;26.032;2023-03-13T01:28:54;28.45;;;21.23;;
79122;SDS011;68526;44.600;26.032;2023-03-13T01:29:10;29.15;;;21.73;;
79122;SDS011;68526;44.600;26.032;2023-03-13T01:29:26;29.33;;;22.17;;
79122;SDS011;68526;44.600;26.032;2023-03-13T01:29:43;30.92;;;22.50;;
79122;SDS011;68526;44.600;26.032;2023-03-13T01:29:59;29.95;;;22.30;;
79122;SDS011;68526;44.600;26.032;2023-03-13T01:30:15;28.77;;;21.80;;
79122;SDS011;68526;44.600;26.032;2023-03-13T01:30:31;29.60;;;21.75;;
79122;SDS011;68526;44.600;26.032;2023-03-13T01:30:47;29.87;;;21.27;;
79122;SDS011;68526;44.600;26.032;2023-03-13T01:31:09;30.65;;;20.92;;
79122;SDS011;68526;44.600;26.032;2023-03-13T01:31:28;31.52;;;21.95;;
79122;SDS011;68526;44.600;26.032;2023-03-13T01:31:45;32.00;;;21.75;;
79122;SDS011;68526;44.600;26.032;2023-03-13T01:32:00;32.70;;;22.00;;
79122;SDS011;68526;44.600;26.032;2023-03-13T01:32:18;32.67;;;21.58;;
79122;SDS011;68526;44.600;26.032;2023-03-13T01:32:35;30.30;;;20.95;;
79122;SDS011;68526;44.600;26.032;2023-03-13T01:32:51;31.23;;;22.02;;
79122;SDS011;68526;44.600;26.032;2023-03-13T01:33:06;31.33;;;22.83;;
79122;SDS011;68526;44.600;26.032;2023-03-13T01:33:22;30.90;;;22.52;;
79122;SDS011;68526;44.600;26.032;2023-03-13T01:33:38;30.57;;;22.37;;
79122;SDS011;68526;44.600;26.032;2023-03-13T01:33:55;30.23;;;21.90;;
79122;SDS011;68526;44.600;26.032;2023-03-13T01:34:12;32.10;;;22.20;;
79122;SDS011;68526;44.600;26.032;2023-03-13T01:34:28;33.90;;;21.92;;
79122;SDS011;68526;44.600;26.032;2023-03-13T01:34:44;31.98;;;21.33;;
79122;SDS011;68526;44.600;26.032;2023-03-13T01:35:00;30.77;;;22.07;;
79122;SDS011;68526;44.600;26.032;2023-03-13T01:35:15;31.98;;;22.05;;
79122;SDS011;68526;44.600;26.032;2023-03-13T01:35:32;31.77;;;21.73;;